La Blanca, Texas
Current Conditions -  °F | °C
As of 3:35 AM on Monday 24 Nov 2014 (Local Time) from KT65 Reporting Station
Light Rain Light Rain  
Wind Chill: 17°   Ceiling: 100
Heat Index: 17°   Visibility: 0mi
Dew Point: 16°   Wind: 0mph
Humidity: 94%   Direction: NA
Pressure: 29.78"   Gusts: NA
Location:  26.29°N, 98.04°W
Report Text: KT65 240935Z AUTO 00000KT M1/4SM -RA OVC001 17/16 A2978 RMK AO2 T01730163
Loading
Personal Weather Stations






























Interactive Weather Map New forecast layout! Learn more

10-Day Weather Forecast

Advertisements
Track Severe Weather on mobile